createdAt,value
2022-12-13T00:08:24.585Z,11.7
2022-12-13T00:19:23.651Z,11.3
2022-12-13T00:30:29.308Z,12.2
2022-12-13T00:36:04.591Z,10.3
2022-12-13T00:41:12.662Z,11.6
2022-12-13T00:46:30.967Z,11
2022-12-13T00:51:50.620Z,11.3
2022-12-13T00:58:22.328Z,15.2
2022-12-13T01:14:42.399Z,11.4
2022-12-13T01:25:26.119Z,9.8
2022-12-13T01:37:26.570Z,12.7
2022-12-13T01:47:58.131Z,9.7
2022-12-13T01:53:12.817Z,10.7
2022-12-13T01:58:29.659Z,10.7
2022-12-13T02:03:43.544Z,9.4
2022-12-13T02:14:53.966Z,10.8
2022-12-13T02:20:05.646Z,9.5
2022-12-13T02:25:17.943Z,11.2
2022-12-13T02:36:12.621Z,15.7
2022-12-13T02:41:19.525Z,13.3
2022-12-13T02:46:45.304Z,12
2022-12-13T02:57:21.982Z,11.2
2022-12-13T03:04:01.316Z,14.5
2022-12-13T03:09:05.885Z,10.9
2022-12-13T03:14:22.637Z,10.3
2022-12-13T03:35:49.566Z,10
2022-12-13T03:41:18.101Z,10.5
2022-12-13T03:57:10.628Z,7.9
2022-12-13T04:02:31.798Z,15
2022-12-13T04:07:48.705Z,9.6
2022-12-13T04:18:21.387Z,9.2
2022-12-13T04:39:49.262Z,8.6
2022-12-13T04:50:32.841Z,10.6
2022-12-13T04:55:43.822Z,11.4
2022-12-13T05:00:57.996Z,10.6
2022-12-13T05:06:38.272Z,9.7
2022-12-13T05:12:02.348Z,9.6
2022-12-13T05:17:11.296Z,9.4
2022-12-13T05:23:53.785Z,11.3
2022-12-13T05:29:08.068Z,8.6
2022-12-13T05:39:33.197Z,9.2
2022-12-13T05:45:14.051Z,7.4
2022-12-13T05:50:20.264Z,10.1
2022-12-13T05:55:41.010Z,8.7
2022-12-13T06:00:56.748Z,11.1
2022-12-13T06:06:11.717Z,10.8
2022-12-13T06:18:16.354Z,10.3
2022-12-13T06:23:42.745Z,11.7
2022-12-13T06:34:25.675Z,11.8
2022-12-13T06:41:01.348Z,16.4
2022-12-13T06:49:12.862Z,17.6
2022-12-13T06:54:31.462Z,9.2
2022-12-13T07:00:06.780Z,9.4
2022-12-13T07:06:39.483Z,13.9
2022-12-13T07:11:52.780Z,11.5
2022-12-13T07:23:31.106Z,20
2022-12-13T07:28:55.728Z,13.6
2022-12-13T07:35:19.482Z,22.7
2022-12-13T07:40:26.463Z,16.1
2022-12-13T07:46:57.736Z,13.7
2022-12-13T07:52:11.258Z,9.9
2022-12-13T08:02:43.663Z,9.9
2022-12-13T08:08:03.454Z,12.9
2022-12-13T08:13:18.295Z,12.5
2022-12-13T08:25:10.732Z,19.6
2022-12-13T08:30:23.489Z,22.9
2022-12-13T08:35:35.566Z,13.5
2022-12-13T08:40:51.707Z,12.1
2022-12-13T08:51:32.323Z,12.6
2022-12-13T08:56:51.081Z,11.6
2022-12-13T09:02:18.273Z,17.1
2022-12-13T09:07:32.217Z,12.7
2022-12-13T09:13:02.635Z,11.5
2022-12-13T09:18:27.975Z,11.8
2022-12-13T09:24:50.496Z,15.1
2022-12-13T09:29:53.179Z,12.5
2022-12-13T09:40:59.755Z,12.5
2022-12-13T09:46:45.566Z,10.5
2022-12-13T10:02:35.815Z,9
2022-12-13T10:13:14.345Z,8.8
2022-12-13T10:29:07.316Z,10
2022-12-13T10:34:23.844Z,7.6
2022-12-13T10:39:35.864Z,7.1
2022-12-13T10:55:30.713Z,7.4
2022-12-13T11:11:28.146Z,7.2
2022-12-13T11:16:40.989Z,7
2022-12-13T11:38:04.661Z,8.5
2022-12-13T11:43:18.866Z,8
2022-12-13T11:48:34.875Z,8.3
2022-12-13T11:53:47.589Z,8.2
2022-12-13T11:59:17.545Z,7
2022-12-13T12:04:08.948Z,7
2022-12-13T12:14:39.693Z,8.6
2022-12-13T12:19:51.953Z,8.3
2022-12-13T12:30:28.294Z,8.2
2022-12-13T12:41:17.961Z,8.8
2022-12-13T13:02:32.009Z,8.4
2022-12-13T13:07:52.544Z,8.3
2022-12-13T13:13:33.794Z,14.3
2022-12-13T13:18:23.424Z,8.9
2022-12-13T13:23:41.380Z,10.2
2022-12-13T13:28:50.287Z,9.2
2022-12-13T13:34:06.011Z,11.5
2022-12-13T13:39:19.753Z,12.1
2022-12-13T13:44:31.552Z,8.6
2022-12-13T13:55:07.719Z,9.8
2022-12-13T14:00:23.762Z,9.5
2022-12-13T14:05:40.024Z,10.1
2022-12-13T14:10:51.716Z,9.1
2022-12-13T14:16:03.166Z,9.5
2022-12-13T14:21:22.789Z,9.8
2022-12-13T14:26:36.844Z,9.6
2022-12-13T14:31:49.182Z,9.6
2022-12-13T14:37:04.350Z,9.8
2022-12-13T14:42:15.964Z,9.7
2022-12-13T14:47:31.405Z,9.5
2022-12-13T14:52:41.758Z,9.2
2022-12-13T15:03:24.697Z,9.2
2022-12-13T15:14:13.198Z,10.5
2022-12-13T15:19:37.605Z,13.9
2022-12-13T15:24:31.087Z,9.8
2022-12-13T15:29:46.828Z,9.3
2022-12-13T15:35:01.038Z,13.1
2022-12-13T15:40:10.646Z,12.5
2022-12-13T15:45:25.391Z,9.4
2022-12-13T15:50:49.422Z,18.6
2022-12-13T15:55:55.561Z,14
2022-12-13T16:01:07.932Z,8.6
2022-12-13T16:06:23.275Z,16.7
2022-12-13T16:11:39.017Z,10.3
2022-12-13T16:16:53.377Z,10.5
2022-12-13T16:22:09.486Z,10.5
2022-12-13T16:27:14.943Z,11.4
2022-12-13T16:33:18.502Z,10.8
2022-12-13T16:43:15.189Z,10.7
2022-12-13T16:48:25.347Z,11
2022-12-13T16:53:37.819Z,19.7
2022-12-13T16:58:53.625Z,12
2022-12-13T17:04:20.417Z,11.2
2022-12-13T17:20:20.601Z,11.9
2022-12-13T17:25:29.335Z,11.8
2022-12-13T17:30:45.492Z,12.3
2022-12-13T17:36:01.267Z,11.5
2022-12-13T17:46:55.487Z,11.8
2022-12-13T17:51:56.165Z,11.3
2022-12-13T17:57:10.065Z,12
2022-12-13T18:07:52.006Z,12.8
2022-12-13T18:13:08.323Z,17.6
2022-12-13T18:18:19.251Z,13.4
2022-12-13T18:34:37.115Z,12.8
2022-12-13T18:43:55.582Z,16.2
2022-12-13T18:54:19.587Z,12.7
2022-12-13T18:59:34.291Z,18.5
2022-12-13T19:04:55.857Z,13.6
2022-12-13T19:15:28.297Z,16.5
2022-12-13T19:20:47.162Z,16.8
2022-12-13T19:25:56.347Z,24.1
2022-12-13T19:31:15.003Z,17.3
2022-12-13T19:36:26.499Z,16.6
2022-12-13T19:41:43.020Z,17.3
2022-12-13T19:46:58.765Z,17.3
2022-12-13T19:57:41.335Z,18.8
2022-12-13T20:13:33.727Z,17.9
2022-12-13T20:18:48.650Z,24.4
2022-12-13T20:24:07.360Z,21.2
2022-12-13T20:29:20.698Z,20.7
2022-12-13T20:34:32.039Z,19
2022-12-13T20:39:46.712Z,24.2
2022-12-13T20:44:59.430Z,18
2022-12-13T20:50:10.981Z,19.6
2022-12-13T21:06:23.903Z,21.8
2022-12-13T21:11:35.275Z,24.8
2022-12-13T21:16:51.570Z,22.7
2022-12-13T21:22:02.877Z,24.8
2022-12-13T21:27:21.393Z,22
2022-12-13T21:32:36.240Z,25.1
2022-12-13T21:37:48.614Z,24.5
2022-12-13T21:48:30.003Z,22.4
2022-12-13T21:53:37.826Z,25.1
2022-12-13T22:04:13.397Z,23.4
2022-12-13T22:09:24.849Z,24.7
2022-12-13T22:31:04.005Z,25.4
2022-12-13T22:52:42.302Z,25.8
2022-12-13T22:57:53.272Z,37.3
2022-12-13T23:03:24.104Z,26.4
2022-12-13T23:13:55.935Z,24.1
2022-12-13T23:19:53.790Z,26.2
2022-12-13T23:24:56.056Z,28
2022-12-13T23:47:53.407Z,44.9
2022-12-13T23:53:01.310Z,32.9
2022-12-13T23:58:13.644Z,34.2
